createdAt,value
2018-10-12T00:00:51.626Z,13.93
2018-10-12T00:03:19.853Z,15.15
2018-10-12T00:05:48.051Z,14.90
2018-10-12T00:08:16.281Z,14.18
2018-10-12T00:10:44.505Z,14.75
2018-10-12T00:13:12.740Z,14.70
2018-10-12T00:15:40.996Z,14.20
2018-10-12T00:18:10.065Z,14.07
2018-10-12T00:20:38.288Z,14.38
2018-10-12T00:23:06.550Z,15.20
2018-10-12T00:25:34.802Z,13.83
2018-10-12T00:28:03.067Z,13.95
2018-10-12T00:30:31.295Z,14.85
2018-10-12T00:32:59.551Z,13.68
2018-10-12T00:35:27.765Z,13.90
2018-10-12T00:37:56.007Z,14.38
2018-10-12T00:40:24.226Z,14.40
2018-10-12T00:42:53.084Z,13.58
2018-10-12T00:45:21.323Z,14.28
2018-10-12T00:47:54.901Z,14.20
2018-10-12T00:50:23.122Z,14.68
2018-10-12T00:52:51.354Z,13.83
2018-10-12T00:55:19.573Z,14.98
2018-10-12T00:57:47.802Z,14.45
2018-10-12T01:00:16.032Z,14.40
2018-10-12T01:02:44.272Z,14.50
2018-10-12T01:05:12.497Z,14.90
2018-10-12T01:07:40.912Z,15.93
2018-10-12T01:10:09.193Z,15.60
2018-10-12T01:12:37.764Z,15.95
2018-10-12T01:15:06.177Z,15.63
2018-10-12T01:17:35.165Z,15.55
2018-10-12T01:20:03.590Z,16.00
2018-10-12T01:22:31.821Z,16.80
2018-10-12T01:25:01.219Z,15.98
2018-10-12T01:27:29.831Z,16.30
2018-10-12T01:29:58.139Z,15.95
2018-10-12T01:32:31.782Z,15.68
2018-10-12T01:35:00.033Z,16.30
2018-10-12T01:37:28.272Z,17.67
2018-10-12T01:39:56.522Z,16.32
2018-10-12T01:42:24.767Z,17.07
2018-10-12T01:44:53.013Z,16.95
2018-10-12T01:47:21.258Z,16.77
2018-10-12T01:49:49.473Z,16.50
2018-10-12T01:52:17.712Z,16.85
2018-10-12T01:54:45.987Z,15.68
2018-10-12T01:57:14.219Z,18.10
2018-10-12T01:59:42.440Z,17.60
2018-10-12T02:02:10.699Z,17.32
2018-10-12T02:04:38.933Z,16.77
2018-10-12T02:07:23.342Z,17.10
2018-10-12T02:09:51.595Z,17.40
2018-10-12T02:12:19.829Z,17.52
2018-10-12T02:14:48.080Z,17.27
2018-10-12T02:17:16.346Z,17.73
2018-10-12T02:19:44.621Z,18.15
2018-10-12T02:22:12.874Z,18.42
2018-10-12T02:24:41.089Z,19.07
2018-10-12T02:27:09.354Z,17.00
2018-10-12T02:29:37.615Z,18.05
2018-10-12T02:32:05.868Z,17.77
2018-10-12T02:34:34.134Z,17.40
2018-10-12T02:37:02.376Z,17.95
2018-10-12T02:39:30.612Z,17.25
2018-10-12T02:41:58.825Z,18.45
2018-10-12T02:44:27.053Z,18.55
2018-10-12T02:46:56.079Z,18.52
2018-10-12T02:49:24.326Z,18.48
2018-10-12T02:51:52.559Z,18.30
2018-10-12T02:54:20.796Z,18.65
2018-10-12T02:56:49.019Z,18.00
2018-10-12T02:59:17.237Z,18.80
2018-10-12T03:01:45.497Z,18.25
2018-10-12T03:04:13.708Z,18.82
2018-10-12T03:06:41.927Z,17.40
2018-10-12T03:09:11.331Z,16.45
2018-10-12T03:11:39.711Z,17.70
2018-10-12T03:14:07.942Z,17.45
2018-10-12T03:16:36.132Z,16.95
2018-10-12T03:19:04.380Z,18.05
2018-10-12T03:21:32.932Z,18.05
2018-10-12T03:24:01.168Z,18.87
2018-10-12T03:26:29.402Z,18.37
2018-10-12T03:28:57.637Z,18.65
2018-10-12T03:31:25.874Z,19.23
2018-10-12T03:33:54.309Z,19.15
2018-10-12T03:36:22.557Z,18.67
2018-10-12T03:38:50.790Z,18.10
2018-10-12T03:41:19.014Z,18.55
2018-10-12T03:43:47.238Z,18.65
2018-10-12T03:46:15.499Z,20.77
2018-10-12T03:48:43.742Z,18.75
2018-10-12T03:51:12.023Z,19.25
2018-10-12T03:53:40.248Z,19.70
2018-10-12T03:56:08.575Z,21.02
2018-10-12T03:58:36.823Z,18.65
2018-10-12T04:01:05.115Z,19.32
2018-10-12T04:03:33.352Z,20.68
2018-10-12T04:06:01.599Z,20.02
2018-10-12T04:08:29.829Z,20.48
2018-10-12T04:10:58.048Z,19.27
2018-10-12T04:13:26.268Z,21.50
2018-10-12T04:15:54.495Z,18.95
2018-10-12T04:18:22.741Z,20.05
2018-10-12T04:20:50.958Z,19.55
2018-10-12T04:23:19.188Z,20.62
2018-10-12T04:25:47.398Z,20.32
2018-10-12T04:28:15.619Z,20.02
2018-10-12T04:30:43.849Z,20.60
2018-10-12T04:33:12.119Z,20.17
2018-10-12T04:35:40.356Z,20.80
2018-10-12T04:38:08.601Z,20.57
2018-10-12T04:41:23.694Z,20.45
2018-10-12T04:43:56.316Z,19.85
2018-10-12T04:46:26.816Z,22.30
2018-10-12T04:48:55.128Z,20.02
2018-10-12T04:51:24.958Z,20.23
2018-10-12T04:53:53.456Z,20.97
2018-10-12T04:56:22.141Z,20.20
2018-10-12T04:58:50.366Z,19.52
2018-10-12T05:01:18.648Z,21.15
2018-10-12T05:03:46.840Z,20.95
2018-10-12T05:06:15.092Z,19.85
2018-10-12T05:08:43.359Z,21.50
2018-10-12T05:11:11.605Z,20.82
2018-10-12T05:13:39.875Z,21.42
2018-10-12T05:16:08.216Z,20.90
2018-10-12T05:18:36.458Z,19.98
2018-10-12T05:21:05.153Z,20.32
2018-10-12T05:23:33.402Z,21.00
2018-10-12T05:26:02.033Z,20.30
2018-10-12T05:28:32.095Z,20.43
2018-10-12T05:31:00.392Z,20.48
2018-10-12T05:33:28.649Z,20.77
2018-10-12T05:35:56.971Z,21.40
2018-10-12T05:38:26.344Z,20.00
2018-10-12T05:40:54.583Z,20.85
2018-10-12T05:43:23.005Z,21.00
2018-10-12T05:45:51.126Z,21.50
2018-10-12T05:48:24.984Z,20.85
2018-10-12T05:50:53.270Z,19.95
2018-10-12T05:53:21.555Z,19.52
2018-10-12T05:55:49.882Z,21.87
2018-10-12T05:58:18.273Z,21.48
2018-10-12T06:00:46.531Z,21.10
2018-10-12T06:03:14.766Z,21.57
2018-10-12T06:05:43.020Z,21.05
2018-10-12T06:08:11.275Z,22.17
2018-10-12T06:10:39.500Z,21.70
2018-10-12T06:13:07.760Z,22.27
2018-10-12T06:15:36.141Z,23.25
2018-10-12T06:18:05.044Z,23.27
2018-10-12T06:20:33.266Z,22.40
2018-10-12T06:23:01.489Z,22.20
2018-10-12T06:25:29.719Z,21.75
2018-10-12T06:27:57.965Z,21.73
2018-10-12T06:30:26.202Z,22.27
2018-10-12T06:32:54.476Z,22.82
2018-10-12T06:35:22.768Z,22.75
2018-10-12T06:37:51.001Z,22.35
2018-10-12T06:40:19.213Z,21.05
2018-10-12T06:42:47.443Z,21.25
2018-10-12T06:45:15.672Z,22.85
2018-10-12T06:47:43.890Z,23.75
2018-10-12T06:50:12.106Z,21.23
2018-10-12T06:52:40.362Z,20.57
2018-10-12T06:55:08.742Z,20.85
2018-10-12T06:57:36.972Z,19.87
2018-10-12T07:00:05.802Z,20.72
2018-10-12T07:02:34.001Z,20.50
2018-10-12T07:05:02.263Z,22.30
2018-10-12T07:07:30.500Z,20.77
2018-10-12T07:09:58.749Z,21.75
2018-10-12T07:12:26.977Z,20.32
2018-10-12T07:14:55.231Z,21.50
2018-10-12T07:17:23.472Z,19.77
2018-10-12T07:19:51.705Z,20.70
2018-10-12T07:22:19.958Z,21.07
2018-10-12T07:24:48.194Z,21.17
2018-10-12T07:27:16.408Z,20.45
2018-10-12T07:29:44.647Z,20.70
2018-10-12T07:32:12.945Z,20.52
2018-10-12T07:34:41.201Z,19.90
2018-10-12T07:37:09.457Z,20.65
2018-10-12T07:39:37.661Z,20.55
2018-10-12T07:42:05.922Z,20.43
2018-10-12T07:44:34.158Z,19.62
2018-10-12T07:47:02.932Z,19.50
2018-10-12T07:49:31.152Z,20.32
2018-10-12T07:51:59.358Z,21.50
2018-10-12T07:54:27.556Z,19.75
2018-10-12T07:56:59.083Z,19.50
2018-10-12T07:59:27.320Z,19.77
2018-10-12T08:01:55.877Z,20.48
2018-10-12T08:04:24.105Z,20.57
2018-10-12T08:06:52.680Z,20.35
2018-10-12T08:09:20.598Z,19.45
2018-10-12T08:11:48.822Z,19.90
2018-10-12T08:14:17.215Z,19.95
2018-10-12T08:16:45.382Z,18.37
2018-10-12T08:19:13.756Z,19.87
2018-10-12T08:21:42.034Z,19.15
2018-10-12T08:24:10.298Z,20.45
2018-10-12T08:26:38.961Z,20.35
2018-10-12T08:29:11.227Z,20.02
2018-10-12T08:31:39.490Z,18.87
2018-10-12T08:34:07.923Z,19.35
2018-10-12T08:36:36.645Z,20.23
2018-10-12T08:39:07.292Z,20.40
2018-10-12T08:41:35.561Z,19.73
2018-10-12T08:44:04.225Z,19.25
2018-10-12T08:46:32.507Z,18.85
2018-10-12T08:49:00.821Z,19.35
2018-10-12T08:51:29.115Z,19.80
2018-10-12T08:53:57.405Z,18.55
2018-10-12T08:56:25.672Z,19.15
2018-10-12T08:58:53.974Z,18.75
2018-10-12T09:01:22.274Z,18.35
2018-10-12T09:03:50.566Z,19.27
2018-10-12T09:06:18.828Z,17.42
2018-10-12T09:08:47.071Z,18.05
2018-10-12T09:11:15.287Z,17.95
2018-10-12T09:13:43.536Z,19.37
2018-10-12T09:16:11.839Z,18.65
2018-10-12T09:18:40.074Z,18.65
2018-10-12T09:21:08.323Z,19.10
2018-10-12T09:23:37.025Z,17.55
2018-10-12T09:26:05.312Z,17.73
2018-10-12T09:28:33.591Z,17.30
2018-10-12T09:31:01.846Z,18.27
2018-10-12T09:33:30.100Z,18.90
2018-10-12T09:35:58.361Z,18.35
2018-10-12T09:38:26.585Z,18.32
2018-10-12T09:40:54.817Z,18.15
2018-10-12T09:43:23.164Z,17.32
2018-10-12T09:45:51.383Z,20.23
2018-10-12T09:48:19.636Z,18.90
2018-10-12T09:50:47.868Z,18.25
2018-10-12T09:53:16.092Z,17.87
2018-10-12T09:55:44.384Z,17.07
2018-10-12T09:58:12.613Z,17.80
2018-10-12T10:00:46.262Z,16.60
2018-10-12T10:03:19.820Z,18.00
2018-10-12T10:05:48.060Z,18.10
2018-10-12T10:08:16.406Z,17.47
2018-10-12T10:10:44.564Z,17.63
2018-10-12T10:13:12.840Z,17.83
2018-10-12T10:15:41.130Z,18.07
2018-10-12T10:18:09.375Z,17.77
2018-10-12T10:20:37.632Z,17.47
2018-10-12T10:23:05.941Z,17.60
2018-10-12T10:25:34.222Z,16.90
2018-10-12T10:28:02.507Z,16.80
2018-10-12T10:30:30.796Z,17.17
2018-10-12T10:32:59.032Z,16.90
2018-10-12T10:35:27.415Z,17.20
2018-10-12T10:37:55.686Z,16.70
2018-10-12T10:40:24.092Z,17.07
2018-10-12T10:42:52.806Z,18.70
2018-10-12T10:45:21.070Z,17.13
2018-10-12T10:47:50.022Z,17.37
2018-10-12T10:50:18.291Z,16.63
2018-10-12T10:52:47.482Z,15.60
2018-10-12T10:55:15.789Z,16.10
2018-10-12T10:57:44.241Z,15.90
2018-10-12T11:00:13.855Z,15.97
2018-10-12T11:02:42.102Z,16.00
2018-10-12T11:05:10.336Z,16.13
2018-10-12T11:07:38.575Z,16.70
2018-10-12T11:10:06.850Z,16.07
2018-10-12T11:12:35.136Z,16.90
2018-10-12T11:15:03.362Z,15.33
2018-10-12T11:17:31.618Z,16.73
2018-10-12T11:19:59.879Z,16.57
2018-10-12T11:22:28.092Z,16.40
2018-10-12T11:24:56.334Z,15.33
2018-10-12T11:27:24.581Z,16.83
2018-10-12T11:29:53.018Z,15.03
2018-10-12T11:32:21.282Z,16.27
2018-10-12T11:34:49.568Z,15.40
2018-10-12T11:37:17.792Z,15.77
2018-10-12T11:39:46.010Z,16.20
2018-10-12T11:42:14.241Z,16.00
2018-10-12T11:44:42.597Z,15.93
2018-10-12T11:47:10.869Z,14.67
2018-10-12T11:49:39.097Z,16.10
2018-10-12T11:52:07.361Z,15.10
2018-10-12T11:54:35.612Z,15.27
2018-10-12T11:57:03.831Z,14.20
2018-10-12T11:59:32.066Z,15.00
2018-10-12T12:02:00.358Z,15.93
2018-10-12T12:04:28.607Z,15.50
2018-10-12T12:06:56.836Z,16.00
2018-10-12T12:09:25.076Z,16.27
2018-10-12T12:11:53.437Z,15.17
2018-10-12T12:14:21.692Z,15.93
2018-10-12T12:16:49.922Z,15.27
2018-10-12T12:19:18.205Z,15.23
2018-10-12T12:21:46.396Z,15.43
2018-10-12T12:24:14.621Z,14.87
2018-10-12T12:26:42.844Z,15.27
2018-10-12T12:29:11.128Z,15.53
2018-10-12T12:31:39.356Z,16.17
2018-10-12T12:34:07.631Z,15.33
2018-10-12T12:36:35.844Z,15.73
2018-10-12T12:39:05.098Z,15.67
2018-10-12T12:41:33.365Z,15.70
2018-10-12T12:44:01.598Z,15.93
2018-10-12T12:46:30.023Z,15.80
2018-10-12T12:48:58.681Z,15.70
2018-10-12T12:51:26.536Z,16.17
2018-10-12T12:53:54.830Z,15.50
2018-10-12T12:56:23.123Z,15.50
2018-10-12T12:58:51.337Z,14.93
2018-10-12T13:01:19.541Z,16.20
2018-10-12T13:03:47.740Z,15.97
2018-10-12T13:06:21.431Z,15.70
2018-10-12T13:08:49.670Z,15.50
2018-10-12T13:11:17.908Z,15.47
2018-10-12T13:13:47.174Z,15.37
2018-10-12T13:16:15.417Z,14.70
2018-10-12T13:18:43.647Z,15.60
2018-10-12T13:21:11.903Z,16.47
2018-10-12T13:23:40.163Z,16.07
2018-10-12T13:26:08.927Z,16.80
2018-10-12T13:28:37.058Z,16.53
2018-10-12T13:31:05.345Z,16.17
2018-10-12T13:33:35.908Z,15.90
2018-10-12T13:36:04.161Z,15.80
2018-10-12T13:38:32.445Z,16.23
2018-10-12T13:41:00.675Z,15.20
2018-10-12T13:43:28.986Z,15.70
2018-10-12T13:45:57.245Z,15.90
2018-10-12T13:48:25.497Z,15.33
2018-10-12T13:50:53.788Z,15.57
2018-10-12T13:53:22.053Z,15.23
2018-10-12T13:55:50.281Z,15.93
2018-10-12T13:58:18.500Z,15.00
2018-10-12T14:00:46.712Z,15.10
2018-10-12T14:03:14.940Z,15.70
2018-10-12T14:05:43.222Z,15.10
2018-10-12T14:08:11.484Z,14.50
2018-10-12T14:10:39.698Z,16.23
2018-10-12T14:13:07.948Z,15.80
2018-10-12T14:15:36.208Z,14.70
2018-10-12T14:18:04.458Z,15.80
2018-10-12T14:20:32.675Z,16.20
2018-10-12T14:23:00.911Z,15.83
2018-10-12T14:25:29.182Z,16.27
2018-10-12T14:27:57.536Z,15.27
2018-10-12T14:30:25.781Z,15.13
2018-10-12T14:32:54.012Z,15.13
2018-10-12T14:35:22.270Z,15.13
2018-10-12T14:37:50.561Z,15.80
2018-10-12T14:40:18.775Z,15.17
2018-10-12T14:42:47.171Z,14.60
2018-10-12T14:45:15.407Z,15.70
2018-10-12T14:47:43.637Z,16.30
2018-10-12T14:50:11.875Z,15.77
2018-10-12T14:52:40.098Z,16.57
2018-10-12T14:55:08.818Z,15.47
2018-10-12T14:57:37.047Z,17.43
2018-10-12T15:00:06.035Z,17.57
2018-10-12T15:02:34.376Z,16.40
2018-10-12T15:05:02.606Z,16.30
2018-10-12T15:07:30.884Z,17.30
2018-10-12T15:09:59.155Z,16.77
2018-10-12T15:12:27.368Z,16.30
2018-10-12T15:15:32.575Z,15.93
2018-10-12T15:18:00.857Z,16.07
2018-10-12T15:20:29.129Z,16.97
2018-10-12T15:22:57.359Z,17.40
2018-10-12T15:25:25.621Z,17.57
2018-10-12T15:27:53.838Z,16.57
2018-10-12T15:30:22.145Z,18.73
2018-10-12T15:32:50.586Z,17.63
2018-10-12T15:35:18.916Z,19.97
2018-10-12T15:37:47.371Z,20.93
2018-10-12T15:40:15.586Z,19.10
2018-10-12T15:42:43.884Z,19.93
2018-10-12T15:45:12.079Z,20.50
2018-10-12T15:47:40.343Z,20.20
2018-10-12T15:50:08.580Z,19.50
2018-10-12T15:52:36.808Z,20.03
2018-10-12T15:55:05.079Z,19.37
2018-10-12T15:57:33.358Z,18.53
2018-10-12T16:00:01.618Z,20.27
2018-10-12T16:02:29.844Z,18.47
2018-10-12T16:04:58.097Z,19.30
2018-10-12T16:07:26.312Z,18.20
2018-10-12T16:09:54.696Z,20.30
2018-10-12T16:12:23.648Z,19.67
2018-10-12T16:14:51.941Z,20.30
2018-10-12T16:17:20.249Z,19.10
2018-10-12T16:19:48.464Z,17.33
2018-10-12T16:22:16.726Z,17.30
2018-10-12T16:24:50.477Z,18.53
2018-10-12T16:27:18.726Z,18.90
2018-10-12T16:29:46.942Z,17.67
2018-10-12T16:32:15.157Z,18.60
2018-10-12T16:34:43.363Z,19.67
2018-10-12T16:37:11.586Z,18.30
2018-10-12T16:39:39.804Z,18.87
2018-10-12T16:42:08.025Z,18.80
2018-10-12T16:44:36.327Z,18.33
2018-10-12T16:47:05.329Z,19.92
2018-10-12T16:49:33.582Z,20.40
2018-10-12T16:52:01.811Z,19.10
2018-10-12T16:54:30.060Z,19.10
2018-10-12T16:56:58.305Z,19.00
2018-10-12T16:59:26.521Z,19.17
2018-10-12T17:01:54.718Z,19.20
2018-10-12T17:04:22.944Z,19.83
2018-10-12T17:06:51.254Z,21.27
2018-10-12T17:09:19.481Z,19.37
2018-10-12T17:11:47.725Z,19.40
2018-10-12T17:14:15.947Z,20.43
2018-10-12T17:16:44.185Z,19.50
2018-10-12T17:19:12.500Z,19.80
2018-10-12T17:21:40.751Z,19.37
2018-10-12T17:24:09.041Z,20.63
2018-10-12T17:26:37.286Z,19.07
2018-10-12T17:29:06.048Z,18.65
2018-10-12T17:31:34.306Z,21.75
2018-10-12T17:34:02.541Z,19.62
2018-10-12T17:36:30.831Z,21.70
2018-10-12T17:38:59.072Z,20.77
2018-10-12T17:41:27.394Z,21.20
2018-10-12T17:43:55.647Z,19.87
2018-10-12T17:46:23.961Z,21.23
2018-10-12T17:48:52.179Z,22.02
2018-10-12T17:51:20.417Z,21.80
2018-10-12T17:53:48.659Z,20.68
2018-10-12T17:56:16.909Z,20.05
2018-10-12T17:58:45.111Z,20.52
2018-10-12T18:01:13.354Z,21.52
2018-10-12T18:03:41.611Z,21.37
2018-10-12T18:06:09.842Z,20.77
2018-10-12T18:08:38.068Z,21.55
2018-10-12T18:11:06.425Z,21.20
2018-10-12T18:13:34.703Z,22.40
2018-10-12T18:16:02.958Z,21.35
2018-10-12T18:18:31.665Z,20.30
2018-10-12T18:20:59.927Z,20.52
2018-10-12T18:23:28.147Z,22.42
2018-10-12T18:25:56.447Z,22.82
2018-10-12T18:28:24.716Z,20.90
2018-10-12T18:30:52.956Z,20.70
2018-10-12T18:33:21.439Z,21.48
2018-10-12T18:35:49.714Z,20.45
2018-10-12T18:38:17.975Z,19.80
2018-10-12T18:40:46.208Z,23.10
2018-10-12T18:43:14.529Z,21.27
2018-10-12T18:45:42.743Z,21.82
2018-10-12T18:48:11.038Z,22.05
2018-10-12T18:50:39.314Z,21.97
2018-10-12T18:53:07.549Z,22.22
2018-10-12T18:55:35.792Z,21.17
2018-10-12T18:58:04.024Z,22.07
2018-10-12T19:00:32.280Z,22.60
2018-10-12T19:03:00.571Z,21.45
2018-10-12T19:05:28.843Z,23.40
2018-10-12T19:07:57.094Z,23.27
2018-10-12T19:10:25.368Z,23.55
2018-10-12T19:12:53.616Z,23.60
2018-10-12T19:15:21.833Z,22.17
2018-10-12T19:17:50.077Z,23.05
2018-10-12T19:20:18.296Z,23.98
2018-10-12T19:22:46.541Z,22.50
2018-10-12T19:25:14.757Z,23.22
2018-10-12T19:27:42.962Z,22.80
2018-10-12T19:30:11.207Z,21.45
2018-10-12T19:32:39.447Z,22.75
2018-10-12T19:35:07.789Z,23.38
2018-10-12T19:37:36.039Z,22.52
2018-10-12T19:40:04.283Z,25.50
2018-10-12T19:42:32.517Z,22.22
2018-10-12T19:45:00.812Z,21.10
2018-10-12T19:47:29.058Z,21.87
2018-10-12T19:49:57.291Z,23.25
2018-10-12T19:52:25.526Z,21.90
2018-10-12T19:54:53.745Z,23.12
2018-10-12T19:57:21.963Z,24.05
2018-10-12T19:59:50.188Z,22.17
2018-10-12T20:02:18.438Z,23.15
2018-10-12T20:04:46.697Z,23.22
2018-10-12T20:07:15.097Z,22.20
2018-10-12T20:09:43.320Z,21.68
2018-10-12T20:12:11.559Z,23.00
2018-10-12T20:14:39.814Z,22.62
2018-10-12T20:17:08.126Z,22.52
2018-10-12T20:19:36.495Z,24.40
2018-10-12T20:22:06.920Z,23.02
2018-10-12T20:24:35.124Z,22.30
2018-10-12T20:27:03.466Z,24.52
2018-10-12T20:29:31.693Z,26.60
2018-10-12T20:31:59.945Z,25.30
2018-10-12T20:34:28.231Z,25.90
2018-10-12T20:36:56.510Z,24.07
2018-10-12T20:39:24.715Z,22.62
2018-10-12T20:41:52.987Z,23.40
2018-10-12T20:44:21.230Z,22.42
2018-10-12T20:46:49.440Z,24.67
2018-10-12T20:49:17.683Z,24.45
2018-10-12T20:51:45.919Z,23.22
2018-10-12T20:54:14.140Z,23.00
2018-10-12T20:56:42.359Z,22.22
2018-10-12T20:59:10.588Z,21.12
2018-10-12T21:01:38.820Z,21.45
2018-10-12T21:04:07.099Z,23.57
2018-10-12T21:06:35.354Z,21.55
2018-10-12T21:09:05.195Z,21.33
2018-10-12T21:11:33.419Z,21.05
2018-10-12T21:14:01.628Z,20.95
2018-10-12T21:16:29.834Z,20.60
2018-10-12T21:18:58.043Z,20.57
2018-10-12T21:21:26.329Z,21.55
2018-10-12T21:23:54.532Z,20.12
2018-10-12T21:26:22.768Z,20.60
2018-10-12T21:28:50.986Z,20.05
2018-10-12T21:31:19.209Z,20.32
2018-10-12T21:33:47.421Z,19.45
2018-10-12T21:36:15.662Z,20.48
2018-10-12T21:38:43.860Z,19.48
2018-10-12T21:41:12.073Z,20.40
2018-10-12T21:43:40.286Z,19.70
2018-10-12T21:46:08.524Z,20.23
2018-10-12T21:48:36.732Z,20.35
2018-10-12T21:51:04.954Z,21.12
2018-10-12T21:53:33.165Z,19.35
2018-10-12T21:56:01.375Z,20.82
2018-10-12T21:58:29.588Z,19.20
2018-10-12T22:01:04.959Z,18.98
2018-10-12T22:03:34.737Z,17.92
2018-10-12T22:06:02.992Z,18.23
2018-10-12T22:08:36.463Z,19.42
2018-10-12T22:11:05.481Z,21.07
2018-10-12T22:13:34.022Z,20.50
2018-10-12T22:16:02.257Z,20.88
2018-10-12T22:18:30.476Z,21.00
2018-10-12T22:20:58.722Z,19.45
2018-10-12T22:23:26.967Z,20.27
2018-10-12T22:25:55.267Z,21.37
2018-10-12T22:28:23.436Z,21.40
2018-10-12T22:30:51.658Z,19.37
2018-10-12T22:33:19.861Z,20.52
2018-10-12T22:35:48.126Z,19.70
2018-10-12T22:38:16.340Z,19.00
2018-10-12T22:40:44.530Z,19.05
2018-10-12T22:43:12.763Z,19.17
2018-10-12T22:45:40.993Z,20.10
2018-10-12T22:48:09.210Z,19.37
2018-10-12T22:50:37.442Z,19.48
2018-10-12T22:53:06.119Z,19.42
2018-10-12T22:55:34.339Z,20.12
2018-10-12T22:58:03.179Z,20.72
2018-10-12T23:00:33.412Z,19.70
2018-10-12T23:03:01.976Z,19.05
2018-10-12T23:05:30.255Z,19.82
2018-10-12T23:07:58.483Z,19.32
2018-10-12T23:10:27.014Z,19.40
2018-10-12T23:12:55.939Z,19.70
2018-10-12T23:15:24.531Z,18.42
2018-10-12T23:17:52.771Z,19.10
2018-10-12T23:20:21.032Z,18.82
2018-10-12T23:22:49.283Z,18.95
2018-10-12T23:25:17.522Z,17.00
2018-10-12T23:27:45.746Z,18.80
2018-10-12T23:30:13.979Z,17.05
2018-10-12T23:32:42.265Z,18.85
2018-10-12T23:35:10.479Z,18.95
2018-10-12T23:37:38.793Z,19.15
2018-10-12T23:40:07.043Z,18.30
2018-10-12T23:42:35.253Z,18.42
2018-10-12T23:45:03.516Z,18.12
2018-10-12T23:47:32.402Z,20.25
2018-10-12T23:50:00.632Z,18.25
2018-10-12T23:52:28.892Z,17.98
2018-10-12T23:54:57.103Z,18.50
2018-10-12T23:57:25.291Z,18.27
2018-10-12T23:59:53.554Z,19.45
